Friday, April 20, 2018, 10:31 AM GMT
Back to Local

CYOW, Ottawa Int'L. Ont.

Location: , , Canada Lat: 45.317
Local Time: 10:31 AM GMT (10:31 GMT) Lon: -75.667
Time Zone: GMT Elev: 380 ft

Show me the last for .
Show Decoded

2018-04-20 10:00 METAR CYOW 201000Z 31013G20KT 15SM FEW030 SCT076 BKN240 M01/M06 A3012 RMK
                 SC1AC2CI3 SLP206 =
2018-04-20 09:00 METAR CYOW 200900Z 31009G16KT 15SM BKN030 M02/M06 A3010 RMK SC5 SLP200 =
2018-04-20 08:00 METAR CYOW 200800Z 31014G20KT 15SM SCT030 M01/M06 A3008 RMK SC3 SLP193 =
2018-04-20 07:00 METAR CYOW 200700Z 30016G23KT 15SM FEW030 BKN080 M00/M06 A3006 RMK SC2AC4 SLP185
                 =
2018-04-20 06:00 METAR CYOW 200600Z 31013G20KT 15SM BKN030 00/M06 A3005 RMK SC7 SLP182 =
2018-04-20 05:00 METAR CYOW 200500Z 31012G18KT 15SM BKN038 M00/M06 A3004 RMK SC7 SLP178 =
2018-04-20 04:00 METAR CYOW 200400Z 30013G19KT 15SM FEW100 BKN120 00/M06 A3002 RMK AC1AC5 SLP172
                 =
2018-04-20 03:00 METAR CYOW 200300Z 31014KT 15SM SCT027 OVC120 00/M05 A3002 RMK SC3AC5 SLP171 =
2018-04-20 02:00 METAR CYOW 200200Z 30014G20KT 15SM SCT026 OVC098 00/M05 A3001 RMK SC3AC5 SLP169
                 =
2018-04-20 01:00 METAR CYOW 200100Z 32017G25KT 15SM SCT035 OVC100 01/M06 A2999 RMK SC3AC5 SLP162
                 =
2018-04-20 00:00 METAR CYOW 200000Z 33017KT 15SM FEW035 SCT055 OVC100 01/M06 A2996 RMK SC2SC1AC5
                 SLP153 =
2018-04-19 23:22 METAR CYOW 192322Z 32013KT 15SM SCT035 BKN055 OVC097 02/M06 A2994 RMK SC3SC2AS3
                 SLP145 =
2018-04-19 23:00 METAR CYOW 192300Z 32012G19KT 15SM -SN BKN035 OVC075 02/M05 A2993 RMK SC5AS3
                 SLP141 =
2018-04-19 22:00 METAR CYOW 192200Z 31018G24KT 15SM -SN FEW020 BKN036 OVC080 02/M05 A2990 RMK
                 SC2SC5AS1 SLP132 =
2018-04-19 21:14 METAR CYOW 192114Z 31016KT 10SM -SN OVC034 02/M05 A2988 RMK SC8 SLP125 =
2018-04-19 21:00 METAR CYOW 192100Z 31013G19KT 15SM SCT040 BKN089 03/M04 A2987 RMK SC4AC3 SLP123
                 =
2018-04-19 20:32 METAR CYOW 192032Z 31015G20KT 15SM BKN040 02/M05 A2986 RMK SC7 SLP120 =
2018-04-19 20:10 METAR CYOW 192010Z 31015G20KT 15SM BKN036 BKN070 03/M05 A2986 RMK SC5AC2 SLP117
                 =
2018-04-19 20:00 METAR CYOW 192000Z 31015G20KT 15SM -SN BKN034 OVC070 03/M05 A2986 RMK SC7AC1
                 SLP116 =
2018-04-19 19:00 METAR CYOW 191900Z 31016KT 15SM -SN OVC033 03/M04 A2985 RMK SC8 SLP113 =
2018-04-19 18:00 METAR CYOW 191800Z 30013G20KT 10SM -SN OVC029 02/M04 A2983 RMK SC8 SLP107 =
2018-04-19 17:00 METAR CYOW 191700Z 32015KT 10SM -SN OVC031 02/M04 A2980 RMK SC8 SLP099 =
2018-04-19 16:00 METAR CYOW 191600Z 31015KT 15SM -SN OVC027 02/M04 A2979 RMK SC8 SLP095 =
2018-04-19 15:12 METAR CYOW 191512Z 31014KT 10SM -SN OVC025 01/M04 A2978 RMK SC8 SLP091
2018-04-19 15:00 METAR CYOW 191500Z 32013KT 15SM OVC024 01/M04 A2978 RMK SC8 SLP090 =
2018-04-19 14:00 METAR CYOW 191400Z 33012KT 15SM BKN023 02/M03 A2976 RMK SC7 SLP085 =
2018-04-19 13:00 METAR CYOW 191300Z 31012KT 15SM SCT020 BKN050 02/M02 A2975 RMK SC4SC1 SLP082 =
2018-04-19 12:39 METAR CYOW 191239Z 32012KT 15SM -SN BKN026 BKN044 01/M02 A2975 RMK SC5SC1 SLP080
                 =
2018-04-19 12:29 METAR CYOW 191229Z 31012KT 15SM SCT029 BKN045 00/M03 A2975 RMK SC4SC2 SLP081 =
2018-04-19 12:00 METAR CYOW 191200Z 30009KT 4SM -SN OVC029 M00/M03 A2976 RMK SC8 SLP083 =
2018-04-19 11:10 METAR CYOW 191110Z 28008KT 8SM -SN OVC024 M00/M04 A2976 RMK SC8 SLP085 =
2018-04-19 11:00 METAR CYOW 191100Z 28006KT 15SM OVC024 M00/M04 A2976 RMK SC8 SLP085 =

Support USWX by starting your Amazon purchase here.